createdAt,value
2023-09-20T00:04:44.724Z,13.61
2023-09-20T00:09:52.195Z,13.61
2023-09-20T00:15:01.696Z,13.60
2023-09-20T00:20:14.323Z,13.59
2023-09-20T00:25:22.170Z,13.52
2023-09-20T00:30:29.556Z,13.47
2023-09-20T00:35:42.143Z,13.43
2023-09-20T00:40:50.386Z,13.42
2023-09-20T00:46:00.415Z,13.38
2023-09-20T00:51:08.855Z,13.32
2023-09-20T00:56:17.891Z,13.28
2023-09-20T01:01:28.457Z,13.25
2023-09-20T01:06:37.252Z,13.25
2023-09-20T01:11:47.846Z,13.23
2023-09-20T01:16:55.785Z,13.21
2023-09-20T01:22:05.244Z,13.19
2023-09-20T01:27:14.766Z,13.22
2023-09-20T01:32:22.553Z,13.28
2023-09-20T01:37:30.233Z,13.34
2023-09-20T01:42:37.796Z,13.33
2023-09-20T01:47:46.559Z,13.32
2023-09-20T01:52:56.274Z,13.28
2023-09-20T01:58:07.538Z,13.21
2023-09-20T02:03:18.997Z,13.18
2023-09-20T02:08:28.065Z,13.22
2023-09-20T02:13:35.507Z,13.24
2023-09-20T02:18:45.937Z,13.24
2023-09-20T02:23:56.305Z,13.22
2023-09-20T02:29:04.933Z,13.22
2023-09-20T02:34:14.612Z,13.21
2023-09-20T02:39:22.144Z,13.16
2023-09-20T02:44:30.851Z,13.11
2023-09-20T02:49:41.855Z,13.10
2023-09-20T02:54:50.022Z,13.06
2023-09-20T02:59:59.596Z,13.05
2023-09-20T03:05:07.611Z,13.07
2023-09-20T03:10:17.843Z,13.04
2023-09-20T03:15:29.849Z,12.98
2023-09-20T03:20:40.019Z,12.88
2023-09-20T03:25:48.701Z,12.84
2023-09-20T03:30:57.390Z,12.82
2023-09-20T03:36:15.870Z,12.77
2023-09-20T03:41:23.646Z,12.66
2023-09-20T03:46:31.078Z,12.56
2023-09-20T03:51:39.049Z,12.45
2023-09-20T03:56:49.517Z,12.36
2023-09-20T04:01:57.380Z,12.32
2023-09-20T04:07:06.125Z,12.31
2023-09-20T04:12:14.192Z,12.27
2023-09-20T04:17:23.307Z,12.20
2023-09-20T04:22:32.638Z,12.14
2023-09-20T04:27:40.541Z,12.14
2023-09-20T04:32:48.210Z,12.17
2023-09-20T04:37:58.122Z,12.16
2023-09-20T04:43:08.089Z,12.19
2023-09-20T04:48:15.700Z,12.14
2023-09-20T04:53:23.676Z,12.05
2023-09-20T04:58:31.234Z,11.96
2023-09-20T05:03:41.272Z,11.93
2023-09-20T05:08:51.571Z,12.00
2023-09-20T05:13:59.492Z,12.08
2023-09-20T05:19:06.665Z,12.19
2023-09-20T05:24:13.985Z,12.39
2023-09-20T05:29:21.677Z,12.64
2023-09-20T05:34:30.221Z,12.88
2023-09-20T05:39:38.288Z,13.05
2023-09-20T05:44:45.797Z,13.22
2023-09-20T05:49:53.268Z,13.42
2023-09-20T05:55:01.020Z,13.63
2023-09-20T06:00:13.911Z,13.81
2023-09-20T06:05:22.099Z,13.97
2023-09-20T06:10:30.894Z,14.13
2023-09-20T06:15:39.659Z,14.26
2023-09-20T06:20:52.643Z,14.36
2023-09-20T06:26:07.050Z,14.48
2023-09-20T06:31:17.849Z,14.59
2023-09-20T06:36:26.169Z,14.69
2023-09-20T06:41:33.731Z,14.79
2023-09-20T06:46:44.108Z,14.88
2023-09-20T06:51:51.883Z,14.97
2023-09-20T06:57:04.440Z,15.09
2023-09-20T07:02:13.838Z,15.22
2023-09-20T07:07:21.762Z,15.35
2023-09-20T07:12:30.504Z,15.48
2023-09-20T07:17:42.546Z,15.58
2023-09-20T07:22:52.892Z,15.71
2023-09-20T07:28:01.243Z,15.84
2023-09-20T07:33:13.792Z,15.98
2023-09-20T07:38:28.184Z,16.14
2023-09-20T07:43:39.410Z,16.30
2023-09-20T07:48:50.842Z,16.51
2023-09-20T07:54:00.186Z,16.78
2023-09-20T07:59:08.552Z,17.09
2023-09-20T08:04:19.671Z,17.38
2023-09-20T08:09:27.237Z,17.64
2023-09-20T08:14:34.786Z,17.88
2023-09-20T08:19:44.257Z,18.08
2023-09-20T08:25:09.486Z,18.25
2023-09-20T08:30:35.336Z,18.31
2023-09-20T08:36:00.499Z,18.34
2023-09-20T08:41:27.142Z,18.38
2023-09-20T08:46:55.957Z,18.45
2023-09-20T08:52:28.948Z,18.55
2023-09-20T08:57:55.023Z,18.62
2023-09-20T09:03:05.625Z,18.69
2023-09-20T09:08:15.583Z,18.77
2023-09-20T09:13:23.698Z,18.85
2023-09-20T09:18:31.317Z,18.93
2023-09-20T09:23:40.972Z,18.98
2023-09-20T09:28:49.092Z,19.06
2023-09-20T09:33:57.837Z,19.16
2023-09-20T09:39:32.339Z,19.25
2023-09-20T09:44:53.007Z,19.39
2023-09-20T09:50:01.267Z,19.49
2023-09-20T09:55:10.757Z,19.53
2023-09-20T10:00:22.333Z,19.60
2023-09-20T10:05:31.252Z,19.67
2023-09-20T10:10:39.039Z,19.75
2023-09-20T10:15:47.525Z,19.87
2023-09-20T10:21:06.486Z,19.96
2023-09-20T10:26:18.632Z,20.02
2023-09-20T10:31:33.850Z,20.10
2023-09-20T10:36:54.285Z,20.18
2023-09-20T10:42:12.580Z,20.26
2023-09-20T10:47:23.293Z,20.34
2023-09-20T10:53:00.617Z,20.44
2023-09-20T10:58:10.330Z,20.51
2023-09-20T11:03:24.103Z,20.59
2023-09-20T11:08:32.405Z,20.63
2023-09-20T11:13:40.024Z,20.68
2023-09-20T11:18:48.968Z,20.76
2023-09-20T11:23:56.709Z,20.85
2023-09-20T11:29:07.501Z,20.91
2023-09-20T11:34:15.524Z,20.96
2023-09-20T11:39:29.686Z,21.00
2023-09-20T11:44:41.258Z,21.04
2023-09-20T11:49:52.444Z,21.08
2023-09-20T11:55:05.429Z,21.10
2023-09-20T12:00:19.725Z,21.13
2023-09-20T12:05:27.422Z,21.18
2023-09-20T12:10:35.348Z,21.27
2023-09-20T12:15:45.365Z,21.32
2023-09-20T12:20:53.111Z,21.34
2023-09-20T12:26:01.131Z,21.35
2023-09-20T12:31:10.349Z,21.39
2023-09-20T12:36:17.908Z,21.42
2023-09-20T12:41:27.455Z,21.47
2023-09-20T12:46:35.238Z,21.48
2023-09-20T12:51:42.850Z,21.53
2023-09-20T12:56:52.260Z,21.60
2023-09-20T13:02:01.574Z,21.65
2023-09-20T13:07:10.043Z,21.69
2023-09-20T13:12:18.095Z,21.76
2023-09-20T13:17:27.209Z,21.84
2023-09-20T13:22:34.848Z,21.89
2023-09-20T13:27:45.623Z,21.91
2023-09-20T13:32:54.438Z,21.91
2023-09-20T13:38:01.928Z,21.91
2023-09-20T13:43:15.508Z,21.93
2023-09-20T13:48:24.696Z,21.92
2023-09-20T13:53:32.481Z,21.89
2023-09-20T13:58:41.484Z,21.88
2023-09-20T14:03:49.217Z,21.87
2023-09-20T14:08:59.294Z,21.88
2023-09-20T14:14:08.463Z,21.90
2023-09-20T14:23:45.947Z,21.93
2023-09-20T14:28:54.052Z,21.88
2023-09-20T14:34:01.896Z,21.85
2023-09-20T14:39:09.812Z,21.80
2023-09-20T14:44:17.920Z,21.75
2023-09-20T14:49:25.935Z,21.72
2023-09-20T14:54:37.395Z,21.69
2023-09-20T14:59:44.907Z,21.65
2023-09-20T15:04:53.593Z,21.61
2023-09-20T15:10:02.083Z,21.58
2023-09-20T15:15:14.824Z,21.55
2023-09-20T15:20:22.591Z,21.52
2023-09-20T15:25:32.346Z,21.49
2023-09-20T15:30:41.592Z,21.45
2023-09-20T15:35:49.275Z,21.41
2023-09-20T15:40:56.872Z,21.37
2023-09-20T15:46:05.162Z,21.30
2023-09-20T15:51:13.157Z,21.23
2023-09-20T15:56:20.817Z,21.16
2023-09-20T16:01:29.807Z,21.09
2023-09-20T16:06:38.090Z,20.98
2023-09-20T16:11:49.524Z,20.86
2023-09-20T16:16:57.557Z,20.74
2023-09-20T16:23:20.097Z,20.64
2023-09-20T16:28:28.179Z,20.53
2023-09-20T16:33:35.760Z,20.45
2023-09-20T16:38:44.576Z,20.33
2023-09-20T16:43:53.249Z,20.03
2023-09-20T16:49:01.314Z,19.78
2023-09-20T16:54:10.758Z,19.59
2023-09-20T16:59:19.165Z,19.35
2023-09-20T17:04:32.915Z,19.04
2023-09-20T17:09:41.233Z,18.79
2023-09-20T17:14:48.638Z,18.68
2023-09-20T17:19:57.322Z,18.47
2023-09-20T17:25:07.021Z,18.21
2023-09-20T17:30:19.061Z,18.20
2023-09-20T17:35:27.576Z,18.22
2023-09-20T17:40:36.822Z,18.07
2023-09-20T17:45:45.057Z,17.99
2023-09-20T17:50:55.810Z,17.97
2023-09-20T17:56:06.017Z,17.82
2023-09-20T18:01:15.609Z,17.60
2023-09-20T18:06:23.573Z,17.43
2023-09-20T18:11:31.606Z,17.29
2023-09-20T18:16:39.609Z,17.10
2023-09-20T18:21:48.420Z,16.98
2023-09-20T18:26:58.771Z,16.82
2023-09-20T18:32:07.238Z,16.71
2023-09-20T18:37:19.392Z,16.57
2023-09-20T18:42:30.131Z,16.45
2023-09-20T18:47:44.080Z,16.44
2023-09-20T18:52:52.694Z,16.39
2023-09-20T18:58:00.244Z,16.23
2023-09-20T19:03:10.392Z,16.26
2023-09-20T19:08:18.702Z,16.32
2023-09-20T19:13:29.445Z,16.25
2023-09-20T19:18:38.252Z,16.13
2023-09-20T19:23:46.156Z,16.00
2023-09-20T19:28:55.746Z,16.06
2023-09-20T19:34:03.614Z,15.97
2023-09-20T19:39:12.231Z,15.84
2023-09-20T19:44:19.875Z,15.90
2023-09-20T19:49:28.413Z,15.86
2023-09-20T19:54:36.884Z,15.76
2023-09-20T19:59:45.069Z,15.63
2023-09-20T20:04:54.216Z,15.51
2023-09-20T20:10:02.779Z,15.44
2023-09-20T20:15:13.299Z,15.47
2023-09-20T20:20:28.485Z,15.48
2023-09-20T20:25:42.230Z,15.39
2023-09-20T20:30:50.830Z,15.31
2023-09-20T20:36:04.880Z,15.22
2023-09-20T20:41:18.904Z,15.16
2023-09-20T20:46:27.503Z,15.03
2023-09-20T20:51:34.703Z,14.92
2023-09-20T20:56:42.698Z,14.88
2023-09-20T21:01:52.660Z,14.88
2023-09-20T21:07:01.607Z,14.96
2023-09-20T21:12:12.979Z,15.04
2023-09-20T21:17:21.401Z,14.98
2023-09-20T21:22:31.831Z,14.88
2023-09-20T21:27:40.305Z,14.75
2023-09-20T21:32:48.632Z,14.64
2023-09-20T21:37:58.052Z,14.61
2023-09-20T21:43:06.726Z,14.64
2023-09-20T21:48:15.309Z,14.53
2023-09-20T21:53:23.964Z,14.47
2023-09-20T21:58:31.938Z,14.42
2023-09-20T22:03:40.130Z,14.42
2023-09-20T22:08:48.248Z,14.43
2023-09-20T22:13:57.097Z,14.35
2023-09-20T22:19:05.435Z,14.36
2023-09-20T22:24:13.171Z,14.33
2023-09-20T22:29:21.695Z,14.31
2023-09-20T22:34:30.111Z,14.29
2023-09-20T22:39:38.645Z,14.19
2023-09-20T22:44:46.454Z,14.08
2023-09-20T22:49:55.404Z,13.99
2023-09-20T22:55:03.168Z,13.97
2023-09-20T23:00:17.876Z,13.97
2023-09-20T23:05:26.774Z,13.96
2023-09-20T23:10:35.130Z,13.92
2023-09-20T23:15:53.327Z,13.86
2023-09-20T23:21:02.247Z,13.90
2023-09-20T23:26:12.261Z,13.88
2023-09-20T23:31:20.040Z,13.79
2023-09-20T23:36:28.083Z,13.71
2023-09-20T23:41:35.831Z,13.64
2023-09-20T23:46:43.292Z,13.60
2023-09-20T23:51:51.027Z,13.58
2023-09-20T23:56:59.385Z,13.60
